sensor_id;sensor_type;location;lat;lon;timestamp;noise_LAeq;noise_LA_min;noise_LA_max;noise_LA01;noise_LA95
67900;Laerm;54700;51.796;10.956;2022-08-03T00:00:51;45.16;28.06;59.84;;
67900;Laerm;54700;51.796;10.956;2022-08-03T00:03:17;29.34;27.55;35.00;;
67900;Laerm;54700;51.796;10.956;2022-08-03T00:05:44;53.38;28.15;67.47;;
67900;Laerm;54700;51.796;10.956;2022-08-03T00:08:11;28.57;27.24;35.36;;
67900;Laerm;54700;51.796;10.956;2022-08-03T00:10:37;52.34;27.33;68.45;;
67900;Laerm;54700;51.796;10.956;2022-08-03T00:13:05;37.30;27.31;49.26;;
67900;Laerm;54700;51.796;10.956;2022-08-03T00:15:32;37.35;27.57;55.67;;
67900;Laerm;54700;51.796;10.956;2022-08-03T00:17:59;52.63;27.72;66.49;;
67900;Laerm;54700;51.796;10.956;2022-08-03T00:20:25;29.48;27.34;36.69;;
67900;Laerm;54700;51.796;10.956;2022-08-03T00:22:52;28.46;27.03;35.87;;
67900;Laerm;54700;51.796;10.956;2022-08-03T00:25:18;29.06;27.30;39.28;;
67900;Laerm;54700;51.796;10.956;2022-08-03T00:27:45;28.62;27.07;46.35;;
67900;Laerm;54700;51.796;10.956;2022-08-03T00:30:13;29.17;27.07;38.91;;
67900;Laerm;54700;51.796;10.956;2022-08-03T00:32:40;29.85;27.24;37.90;;
67900;Laerm;54700;51.796;10.956;2022-08-03T00:35:07;30.62;27.49;40.78;;
67900;Laerm;54700;51.796;10.956;2022-08-03T00:37:34;29.02;27.18;36.69;;
67900;Laerm;54700;51.796;10.956;2022-08-03T00:40:00;49.84;27.36;64.58;;
67900;Laerm;54700;51.796;10.956;2022-08-03T00:42:27;54.23;27.31;70.99;;
67900;Laerm;54700;51.796;10.956;2022-08-03T00:44:53;29.44;26.99;36.24;;
67900;Laerm;54700;51.796;10.956;2022-08-03T00:47:21;29.37;26.87;40.22;;
67900;Laerm;54700;51.796;10.956;2022-08-03T00:49:48;28.69;27.22;36.90;;
67900;Laerm;54700;51.796;10.956;2022-08-03T00:52:15;29.61;26.72;40.42;;
67900;Laerm;54700;51.796;10.956;2022-08-03T00:54:42;29.49;27.30;34.94;;
67900;Laerm;54700;51.796;10.956;2022-08-03T00:57:08;29.27;26.89;36.59;;
67900;Laerm;54700;51.796;10.956;2022-08-03T00:59:35;29.38;27.10;39.69;;
67900;Laerm;54700;51.796;10.956;2022-08-03T01:02:03;28.81;27.50;35.50;;
67900;Laerm;54700;51.796;10.956;2022-08-03T01:04:31;28.94;27.45;35.82;;
67900;Laerm;54700;51.796;10.956;2022-08-03T01:07:04;47.81;27.52;65.27;;
67900;Laerm;54700;51.796;10.956;2022-08-03T01:09:39;33.61;27.45;52.50;;
67900;Laerm;54700;51.796;10.956;2022-08-03T01:12:11;33.03;28.08;44.41;;
67900;Laerm;54700;51.796;10.956;2022-08-03T01:14:43;29.74;28.07;40.39;;
67900;Laerm;54700;51.796;10.956;2022-08-03T01:17:14;31.56;28.11;52.51;;
67900;Laerm;54700;51.796;10.956;2022-08-03T01:19:48;51.24;28.11;66.98;;
67900;Laerm;54700;51.796;10.956;2022-08-03T01:22:36;37.69;28.18;52.42;;
67900;Laerm;54700;51.796;10.956;2022-08-03T01:25:10;32.82;27.83;46.64;;
67900;Laerm;54700;51.796;10.956;2022-08-03T01:27:50;49.98;27.85;66.46;;
67900;Laerm;54700;51.796;10.956;2022-08-03T01:30:22;29.44;27.41;42.90;;
67900;Laerm;54700;51.796;10.956;2022-08-03T01:32:54;50.66;27.84;67.51;;
67900;Laerm;54700;51.796;10.956;2022-08-03T01:35:27;33.73;27.68;51.80;;
67900;Laerm;54700;51.796;10.956;2022-08-03T01:37:57;29.47;27.40;37.10;;
67900;Laerm;54700;51.796;10.956;2022-08-03T01:40:27;28.92;27.33;35.43;;
67900;Laerm;54700;51.796;10.956;2022-08-03T01:42:56;29.32;27.46;35.61;;
67900;Laerm;54700;51.796;10.956;2022-08-03T01:45:26;30.11;27.63;45.70;;
67900;Laerm;54700;51.796;10.956;2022-08-03T01:47:54;33.36;28.03;48.02;;
67900;Laerm;54700;51.796;10.956;2022-08-03T01:50:24;30.71;28.09;43.50;;
67900;Laerm;54700;51.796;10.956;2022-08-03T01:52:53;32.31;28.53;42.81;;
67900;Laerm;54700;51.796;10.956;2022-08-03T01:55:21;30.64;28.37;38.67;;
67900;Laerm;54700;51.796;10.956;2022-08-03T01:57:50;32.53;28.84;47.04;;
67900;Laerm;54700;51.796;10.956;2022-08-03T02:00:17;33.05;28.82;46.27;;
67900;Laerm;54700;51.796;10.956;2022-08-03T02:02:48;55.08;29.57;70.20;;
67900;Laerm;54700;51.796;10.956;2022-08-03T02:05:15;34.26;29.18;47.52;;
67900;Laerm;54700;51.796;10.956;2022-08-03T02:07:45;40.58;29.38;59.38;;
67900;Laerm;54700;51.796;10.956;2022-08-03T02:10:14;48.12;30.56;64.12;;
67900;Laerm;54700;51.796;10.956;2022-08-03T02:12:44;48.75;31.21;64.04;;
67900;Laerm;54700;51.796;10.956;2022-08-03T02:15:14;36.33;30.65;50.17;;
67900;Laerm;54700;51.796;10.956;2022-08-03T02:17:42;51.74;31.14;64.38;;
67900;Laerm;54700;51.796;10.956;2022-08-03T02:20:12;40.31;32.25;54.95;;
67900;Laerm;54700;51.796;10.956;2022-08-03T02:22:39;49.08;32.67;65.78;;
67900;Laerm;54700;51.796;10.956;2022-08-03T02:25:08;37.50;32.14;45.99;;
67900;Laerm;54700;51.796;10.956;2022-08-03T02:27:37;54.22;33.36;67.98;;
67900;Laerm;54700;51.796;10.956;2022-08-03T02:30:06;51.78;34.87;63.29;;
67900;Laerm;54700;51.796;10.956;2022-08-03T02:32:35;40.39;30.88;55.81;;
67900;Laerm;54700;51.796;10.956;2022-08-03T02:35:06;52.29;32.03;67.58;;
67900;Laerm;54700;51.796;10.956;2022-08-03T02:37:41;56.78;32.00;68.27;;
67900;Laerm;54700;51.796;10.956;2022-08-03T02:40:10;38.73;32.00;46.73;;
67900;Laerm;54700;51.796;10.956;2022-08-03T02:42:39;37.34;31.76;45.99;;
67900;Laerm;54700;51.796;10.956;2022-08-03T02:45:09;49.30;32.90;66.70;;
67900;Laerm;54700;51.796;10.956;2022-08-03T02:47:39;38.51;32.06;51.48;;
67900;Laerm;54700;51.796;10.956;2022-08-03T02:50:08;52.32;32.70;70.51;;
67900;Laerm;54700;51.796;10.956;2022-08-03T02:52:38;55.64;34.46;68.20;;
67900;Laerm;54700;51.796;10.956;2022-08-03T02:55:09;54.99;32.12;67.68;;
67900;Laerm;54700;51.796;10.956;2022-08-03T02:57:38;53.72;31.87;67.00;;
67900;Laerm;54700;51.796;10.956;2022-08-03T03:00:06;56.66;33.56;68.65;;
67900;Laerm;54700;51.796;10.956;2022-08-03T03:02:35;41.91;33.10;63.05;;
67900;Laerm;54700;51.796;10.956;2022-08-03T03:05:03;57.19;34.25;71.80;;
67900;Laerm;54700;51.796;10.956;2022-08-03T03:07:31;56.84;35.55;73.97;;
67900;Laerm;54700;51.796;10.956;2022-08-03T03:10:00;56.86;35.60;69.59;;
67900;Laerm;54700;51.796;10.956;2022-08-03T03:12:28;56.75;33.32;69.18;;
67900;Laerm;54700;51.796;10.956;2022-08-03T03:14:55;53.87;33.78;66.98;;
67900;Laerm;54700;51.796;10.956;2022-08-03T03:17:22;55.27;34.03;68.51;;
67900;Laerm;54700;51.796;10.956;2022-08-03T03:19:50;58.48;34.87;71.82;;
67900;Laerm;54700;51.796;10.956;2022-08-03T03:22:18;56.70;37.12;68.15;;
67900;Laerm;54700;51.796;10.956;2022-08-03T03:24:45;58.29;35.95;67.91;;
67900;Laerm;54700;51.796;10.956;2022-08-03T03:27:15;56.21;35.17;69.74;;
67900;Laerm;54700;51.796;10.956;2022-08-03T03:29:42;56.08;35.64;66.63;;
67900;Laerm;54700;51.796;10.956;2022-08-03T03:32:09;58.04;37.63;71.80;;
67900;Laerm;54700;51.796;10.956;2022-08-03T03:34:36;53.16;35.02;68.07;;
67900;Laerm;54700;51.796;10.956;2022-08-03T03:37:03;56.12;35.95;72.83;;
67900;Laerm;54700;51.796;10.956;2022-08-03T03:39:30;57.89;35.03;71.94;;
67900;Laerm;54700;51.796;10.956;2022-08-03T03:41:57;58.60;36.29;69.18;;
67900;Laerm;54700;51.796;10.956;2022-08-03T03:44:27;56.75;34.51;66.62;;
67900;Laerm;54700;51.796;10.956;2022-08-03T03:46:54;60.34;37.75;71.48;;
67900;Laerm;54700;51.796;10.956;2022-08-03T03:49:21;61.17;40.22;70.44;;
67900;Laerm;54700;51.796;10.956;2022-08-03T03:51:51;59.97;37.72;70.99;;
67900;Laerm;54700;51.796;10.956;2022-08-03T03:54:19;59.88;33.21;71.05;;
67900;Laerm;54700;51.796;10.956;2022-08-03T03:56:46;52.76;33.24;65.16;;
67900;Laerm;54700;51.796;10.956;2022-08-03T03:59:12;60.00;40.25;73.25;;
67900;Laerm;54700;51.796;10.956;2022-08-03T04:01:40;57.24;34.16;70.12;;
67900;Laerm;54700;51.796;10.956;2022-08-03T04:04:07;57.92;33.75;71.60;;
67900;Laerm;54700;51.796;10.956;2022-08-03T04:06:49;60.13;38.58;68.85;;
67900;Laerm;54700;51.796;10.956;2022-08-03T04:09:34;59.50;40.80;69.23;;
67900;Laerm;54700;51.796;10.956;2022-08-03T04:12:21;58.74;35.75;69.51;;
67900;Laerm;54700;51.796;10.956;2022-08-03T04:14:50;56.48;35.81;67.01;;
67900;Laerm;54700;51.796;10.956;2022-08-03T04:17:23;46.48;33.19;63.00;;
67900;Laerm;54700;51.796;10.956;2022-08-03T04:19:52;59.16;36.96;70.53;;
67900;Laerm;54700;51.796;10.956;2022-08-03T04:22:25;59.52;36.04;68.96;;
67900;Laerm;54700;51.796;10.956;2022-08-03T04:24:55;60.61;39.64;70.52;;
67900;Laerm;54700;51.796;10.956;2022-08-03T04:27:28;62.10;43.26;73.39;;
67900;Laerm;54700;51.796;10.956;2022-08-03T04:29:57;61.83;40.09;73.94;;
67900;Laerm;54700;51.796;10.956;2022-08-03T04:32:29;59.89;40.18;71.84;;
67900;Laerm;54700;51.796;10.956;2022-08-03T04:34:56;61.56;43.28;74.84;;
67900;Laerm;54700;51.796;10.956;2022-08-03T04:37:31;61.69;44.65;80.34;;
67900;Laerm;54700;51.796;10.956;2022-08-03T04:40:02;60.05;37.22;68.76;;
67900;Laerm;54700;51.796;10.956;2022-08-03T04:42:32;60.85;42.20;72.68;;
67900;Laerm;54700;51.796;10.956;2022-08-03T04:45:01;61.04;43.95;68.82;;
67900;Laerm;54700;51.796;10.956;2022-08-03T04:47:31;61.70;45.57;69.40;;
67900;Laerm;54700;51.796;10.956;2022-08-03T04:50:00;59.77;42.09;70.28;;
67900;Laerm;54700;51.796;10.956;2022-08-03T04:52:27;59.76;41.17;70.31;;
67900;Laerm;54700;51.796;10.956;2022-08-03T04:54:54;61.93;40.79;73.26;;
67900;Laerm;54700;51.796;10.956;2022-08-03T04:57:21;61.60;46.26;70.74;;
67900;Laerm;54700;51.796;10.956;2022-08-03T04:59:50;61.13;40.28;72.89;;
67900;Laerm;54700;51.796;10.956;2022-08-03T05:02:19;58.90;38.63;68.44;;
67900;Laerm;54700;51.796;10.956;2022-08-03T05:04:47;58.52;39.28;70.45;;
67900;Laerm;54700;51.796;10.956;2022-08-03T05:07:15;62.63;46.41;73.18;;
67900;Laerm;54700;51.796;10.956;2022-08-03T05:09:43;59.98;40.36;72.99;;
67900;Laerm;54700;51.796;10.956;2022-08-03T05:12:10;63.88;45.10;78.95;;
67900;Laerm;54700;51.796;10.956;2022-08-03T05:14:37;61.99;40.06;71.09;;
67900;Laerm;54700;51.796;10.956;2022-08-03T05:17:04;62.29;44.39;72.57;;
67900;Laerm;54700;51.796;10.956;2022-08-03T05:19:31;60.96;40.88;71.97;;
67900;Laerm;54700;51.796;10.956;2022-08-03T05:21:59;60.63;41.29;72.33;;
67900;Laerm;54700;51.796;10.956;2022-08-03T05:24:26;60.66;40.83;70.65;;
67900;Laerm;54700;51.796;10.956;2022-08-03T05:26:53;60.63;38.30;70.53;;
67900;Laerm;54700;51.796;10.956;2022-08-03T05:29:20;62.11;39.93;75.87;;
67900;Laerm;54700;51.796;10.956;2022-08-03T05:31:46;64.72;47.62;79.99;;
67900;Laerm;54700;51.796;10.956;2022-08-03T05:34:13;61.74;41.68;72.11;;
67900;Laerm;54700;51.796;10.956;2022-08-03T05:36:40;65.39;43.75;80.86;;
67900;Laerm;54700;51.796;10.956;2022-08-03T05:39:08;58.29;37.73;68.03;;
67900;Laerm;54700;51.796;10.956;2022-08-03T05:41:34;61.61;47.55;71.41;;
67900;Laerm;54700;51.796;10.956;2022-08-03T05:44:01;59.32;38.82;71.44;;
67900;Laerm;54700;51.796;10.956;2022-08-03T05:46:28;60.09;38.78;69.69;;
67900;Laerm;54700;51.796;10.956;2022-08-03T05:48:54;61.73;38.56;71.45;;
67900;Laerm;54700;51.796;10.956;2022-08-03T05:51:21;63.08;49.21;72.52;;
67900;Laerm;54700;51.796;10.956;2022-08-03T05:53:48;60.04;40.67;68.32;;
67900;Laerm;54700;51.796;10.956;2022-08-03T05:56:16;61.64;44.59;71.14;;
67900;Laerm;54700;51.796;10.956;2022-08-03T05:58:46;62.86;42.25;79.02;;
67900;Laerm;54700;51.796;10.956;2022-08-03T06:01:12;57.49;38.63;71.46;;
67900;Laerm;54700;51.796;10.956;2022-08-03T06:03:39;60.71;40.74;77.01;;
67900;Laerm;54700;51.796;10.956;2022-08-03T06:06:06;59.16;40.56;69.96;;
67900;Laerm;54700;51.796;10.956;2022-08-03T06:08:33;61.07;47.97;71.34;;
67900;Laerm;54700;51.796;10.956;2022-08-03T06:11:00;61.56;38.31;74.05;;
67900;Laerm;54700;51.796;10.956;2022-08-03T06:13:28;62.52;40.74;76.56;;
67900;Laerm;54700;51.796;10.956;2022-08-03T06:15:54;58.34;40.17;68.84;;
67900;Laerm;54700;51.796;10.956;2022-08-03T06:18:21;60.45;39.65;72.61;;
67900;Laerm;54700;51.796;10.956;2022-08-03T06:20:48;60.37;39.75;70.16;;
67900;Laerm;54700;51.796;10.956;2022-08-03T06:23:15;60.06;45.35;70.76;;
67900;Laerm;54700;51.796;10.956;2022-08-03T06:25:42;59.84;45.34;70.78;;
67900;Laerm;54700;51.796;10.956;2022-08-03T06:28:09;60.63;43.95;72.66;;
67900;Laerm;54700;51.796;10.956;2022-08-03T06:30:38;60.92;39.08;74.96;;
67900;Laerm;54700;51.796;10.956;2022-08-03T06:33:05;62.04;41.45;73.78;;
67900;Laerm;54700;51.796;10.956;2022-08-03T06:35:32;61.92;41.21;73.91;;
67900;Laerm;54700;51.796;10.956;2022-08-03T06:37:59;64.89;37.20;81.87;;
67900;Laerm;54700;51.796;10.956;2022-08-03T06:40:25;61.61;44.04;69.60;;
67900;Laerm;54700;51.796;10.956;2022-08-03T06:42:55;59.30;35.06;69.11;;
67900;Laerm;54700;51.796;10.956;2022-08-03T06:45:23;62.13;37.28;71.37;;
67900;Laerm;54700;51.796;10.956;2022-08-03T06:48:01;60.65;39.63;70.56;;
67900;Laerm;54700;51.796;10.956;2022-08-03T06:50:28;63.12;35.32;77.53;;
67900;Laerm;54700;51.796;10.956;2022-08-03T06:52:54;60.97;44.81;75.07;;
67900;Laerm;54700;51.796;10.956;2022-08-03T06:55:22;64.09;44.26;83.04;;
67900;Laerm;54700;51.796;10.956;2022-08-03T06:57:48;60.69;36.36;72.66;;
67900;Laerm;54700;51.796;10.956;2022-08-03T07:00:15;62.14;42.84;72.47;;
67900;Laerm;54700;51.796;10.956;2022-08-03T07:02:43;63.47;44.13;76.00;;
67900;Laerm;54700;51.796;10.956;2022-08-03T07:05:11;58.59;35.12;69.94;;
67900;Laerm;54700;51.796;10.956;2022-08-03T07:07:38;59.19;37.20;70.16;;
67900;Laerm;54700;51.796;10.956;2022-08-03T07:10:06;62.26;42.32;74.03;;
67900;Laerm;54700;51.796;10.956;2022-08-03T07:12:34;64.22;47.41;76.82;;
67900;Laerm;54700;51.796;10.956;2022-08-03T07:15:03;60.29;43.15;71.47;;
67900;Laerm;54700;51.796;10.956;2022-08-03T07:17:32;60.98;39.28;70.83;;
67900;Laerm;54700;51.796;10.956;2022-08-03T07:20:00;60.72;40.30;70.02;;
67900;Laerm;54700;51.796;10.956;2022-08-03T07:22:28;61.15;39.19;75.49;;
67900;Laerm;54700;51.796;10.956;2022-08-03T07:24:55;61.69;37.08;70.85;;
67900;Laerm;54700;51.796;10.956;2022-08-03T07:27:22;62.20;44.41;76.45;;
67900;Laerm;54700;51.796;10.956;2022-08-03T07:29:51;61.01;46.26;70.57;;
67900;Laerm;54700;51.796;10.956;2022-08-03T07:32:18;59.30;39.25;67.60;;
67900;Laerm;54700;51.796;10.956;2022-08-03T07:34:44;61.95;38.40;72.71;;
67900;Laerm;54700;51.796;10.956;2022-08-03T07:37:11;62.50;43.65;71.08;;
67900;Laerm;54700;51.796;10.956;2022-08-03T07:39:39;61.65;44.74;72.35;;
67900;Laerm;54700;51.796;10.956;2022-08-03T07:42:06;60.45;41.72;71.13;;
67900;Laerm;54700;51.796;10.956;2022-08-03T07:44:32;59.37;39.55;69.68;;
67900;Laerm;54700;51.796;10.956;2022-08-03T07:46:59;61.29;36.13;70.53;;
67900;Laerm;54700;51.796;10.956;2022-08-03T07:49:26;62.18;43.24;72.07;;
67900;Laerm;54700;51.796;10.956;2022-08-03T07:51:52;58.44;35.33;69.36;;
67900;Laerm;54700;51.796;10.956;2022-08-03T07:54:33;61.17;40.05;70.50;;
67900;Laerm;54700;51.796;10.956;2022-08-03T07:57:01;61.42;40.16;72.30;;
67900;Laerm;54700;51.796;10.956;2022-08-03T07:59:27;62.45;40.63;71.77;;
67900;Laerm;54700;51.796;10.956;2022-08-03T08:01:54;63.00;36.00;70.27;;
67900;Laerm;54700;51.796;10.956;2022-08-03T08:04:21;61.35;41.56;70.84;;
67900;Laerm;54700;51.796;10.956;2022-08-03T08:06:48;62.79;44.89;76.00;;
67900;Laerm;54700;51.796;10.956;2022-08-03T08:09:14;61.21;43.30;69.22;;
67900;Laerm;54700;51.796;10.956;2022-08-03T08:11:41;62.47;44.63;71.29;;
67900;Laerm;54700;51.796;10.956;2022-08-03T08:14:09;59.35;34.72;70.04;;
67900;Laerm;54700;51.796;10.956;2022-08-03T08:16:36;62.16;35.17;68.41;;
67900;Laerm;54700;51.796;10.956;2022-08-03T08:19:04;61.36;44.05;68.87;;
67900;Laerm;54700;51.796;10.956;2022-08-03T08:21:31;62.28;37.84;78.07;;
67900;Laerm;54700;51.796;10.956;2022-08-03T08:23:57;62.20;39.39;71.15;;
67900;Laerm;54700;51.796;10.956;2022-08-03T08:26:24;59.56;40.04;68.65;;
67900;Laerm;54700;51.796;10.956;2022-08-03T08:28:51;64.59;42.07;88.79;;
67900;Laerm;54700;51.796;10.956;2022-08-03T08:31:19;59.53;38.34;68.09;;
67900;Laerm;54700;51.796;10.956;2022-08-03T08:33:45;63.85;48.95;73.54;;
67900;Laerm;54700;51.796;10.956;2022-08-03T08:36:12;62.40;47.93;69.57;;
67900;Laerm;54700;51.796;10.956;2022-08-03T08:38:38;60.47;47.05;68.87;;
67900;Laerm;54700;51.796;10.956;2022-08-03T08:41:07;61.26;44.64;69.77;;
67900;Laerm;54700;51.796;10.956;2022-08-03T08:43:34;61.65;41.04;72.15;;
67900;Laerm;54700;51.796;10.956;2022-08-03T08:46:01;62.44;41.31;78.90;;
67900;Laerm;54700;51.796;10.956;2022-08-03T08:48:30;62.01;37.41;70.79;;
67900;Laerm;54700;51.796;10.956;2022-08-03T08:50:58;61.00;46.47;71.47;;
67900;Laerm;54700;51.796;10.956;2022-08-03T08:53:27;60.19;35.18;67.99;;
67900;Laerm;54700;51.796;10.956;2022-08-03T08:55:58;60.80;42.14;68.12;;
67900;Laerm;54700;51.796;10.956;2022-08-03T08:58:28;60.49;36.29;70.43;;
67900;Laerm;54700;51.796;10.956;2022-08-03T09:00:55;65.01;47.44;76.83;;
67900;Laerm;54700;51.796;10.956;2022-08-03T09:03:22;60.76;43.54;70.98;;
67900;Laerm;54700;51.796;10.956;2022-08-03T09:05:51;60.09;40.94;68.26;;
67900;Laerm;54700;51.796;10.956;2022-08-03T09:08:18;63.88;49.42;82.72;;
67900;Laerm;54700;51.796;10.956;2022-08-03T09:10:45;60.37;38.73;71.48;;
67900;Laerm;54700;51.796;10.956;2022-08-03T09:13:12;61.68;41.37;81.77;;
67900;Laerm;54700;51.796;10.956;2022-08-03T09:15:40;60.67;40.46;69.91;;
67900;Laerm;54700;51.796;10.956;2022-08-03T09:18:07;61.49;39.41;68.58;;
67900;Laerm;54700;51.796;10.956;2022-08-03T09:20:34;62.91;47.71;71.86;;
67900;Laerm;54700;51.796;10.956;2022-08-03T09:23:05;62.22;44.33;71.38;;
67900;Laerm;54700;51.796;10.956;2022-08-03T09:25:36;61.54;38.84;72.28;;
67900;Laerm;54700;51.796;10.956;2022-08-03T09:28:06;67.70;45.83;78.73;;
67900;Laerm;54700;51.796;10.956;2022-08-03T09:30:33;62.30;42.49;74.17;;
67900;Laerm;54700;51.796;10.956;2022-08-03T09:33:00;62.10;46.90;75.43;;
67900;Laerm;54700;51.796;10.956;2022-08-03T09:35:28;62.78;43.33;72.56;;
67900;Laerm;54700;51.796;10.956;2022-08-03T09:38:10;61.29;35.28;74.43;;
67900;Laerm;54700;51.796;10.956;2022-08-03T09:40:37;60.78;41.05;73.22;;
67900;Laerm;54700;51.796;10.956;2022-08-03T09:43:05;61.42;43.52;71.94;;
67900;Laerm;54700;51.796;10.956;2022-08-03T09:45:32;61.87;40.59;79.79;;
67900;Laerm;54700;51.796;10.956;2022-08-03T09:48:19;61.60;38.07;70.07;;
67900;Laerm;54700;51.796;10.956;2022-08-03T09:50:49;62.70;43.37;71.28;;
67900;Laerm;54700;51.796;10.956;2022-08-03T09:53:18;59.71;38.00;68.62;;
67900;Laerm;54700;51.796;10.956;2022-08-03T09:55:53;61.01;38.17;70.76;;
67900;Laerm;54700;51.796;10.956;2022-08-03T09:58:20;66.18;54.08;75.68;;
67900;Laerm;54700;51.796;10.956;2022-08-03T10:00:56;61.62;47.65;71.52;;
67900;Laerm;54700;51.796;10.956;2022-08-03T10:03:24;66.42;50.58;79.63;;
67900;Laerm;54700;51.796;10.956;2022-08-03T10:05:52;61.15;42.62;74.14;;
67900;Laerm;54700;51.796;10.956;2022-08-03T10:08:20;59.92;38.88;71.01;;
67900;Laerm;54700;51.796;10.956;2022-08-03T10:10:50;62.98;45.15;73.40;;
67900;Laerm;54700;51.796;10.956;2022-08-03T10:13:19;59.12;38.70;68.25;;
67900;Laerm;54700;51.796;10.956;2022-08-03T10:15:46;61.30;44.80;69.26;;
67900;Laerm;54700;51.796;10.956;2022-08-03T10:18:13;65.55;42.56;79.99;;
67900;Laerm;54700;51.796;10.956;2022-08-03T10:20:44;60.70;44.13;75.91;;
67900;Laerm;54700;51.796;10.956;2022-08-03T10:23:13;76.92;39.19;98.73;;
67900;Laerm;54700;51.796;10.956;2022-08-03T10:25:42;61.98;40.25;71.10;;
67900;Laerm;54700;51.796;10.956;2022-08-03T10:28:12;66.57;46.71;82.07;;
67900;Laerm;54700;51.796;10.956;2022-08-03T10:30:43;59.86;39.23;70.44;;
67900;Laerm;54700;51.796;10.956;2022-08-03T10:33:16;62.63;34.57;76.42;;
67900;Laerm;54700;51.796;10.956;2022-08-03T10:35:44;62.07;40.99;74.23;;
67900;Laerm;54700;51.796;10.956;2022-08-03T10:38:19;60.72;42.98;69.46;;
67900;Laerm;54700;51.796;10.956;2022-08-03T10:40:49;62.01;47.35;71.00;;
67900;Laerm;54700;51.796;10.956;2022-08-03T10:43:21;62.31;48.22;73.72;;
67900;Laerm;54700;51.796;10.956;2022-08-03T10:45:48;59.52;39.29;68.49;;
67900;Laerm;54700;51.796;10.956;2022-08-03T10:48:16;60.43;37.77;68.50;;
67900;Laerm;54700;51.796;10.956;2022-08-03T10:50:44;61.26;40.63;73.74;;
67900;Laerm;54700;51.796;10.956;2022-08-03T10:53:11;60.69;38.21;68.80;;
67900;Laerm;54700;51.796;10.956;2022-08-03T10:55:39;61.25;36.81;73.92;;
67900;Laerm;54700;51.796;10.956;2022-08-03T10:58:47;60.91;36.81;72.41;;
67900;Laerm;54700;51.796;10.956;2022-08-03T11:01:15;61.11;43.58;72.77;;
67900;Laerm;54700;51.796;10.956;2022-08-03T11:04:14;57.34;35.94;67.85;;
67900;Laerm;54700;51.796;10.956;2022-08-03T11:06:41;63.63;42.14;79.80;;
67900;Laerm;54700;51.796;10.956;2022-08-03T11:09:17;62.75;36.55;77.83;;
67900;Laerm;54700;51.796;10.956;2022-08-03T11:11:45;59.74;38.45;69.21;;
67900;Laerm;54700;51.796;10.956;2022-08-03T11:14:16;61.06;40.52;70.11;;
67900;Laerm;54700;51.796;10.956;2022-08-03T11:16:45;58.86;37.98;69.47;;
67900;Laerm;54700;51.796;10.956;2022-08-03T11:19:13;62.79;36.43;75.76;;
67900;Laerm;54700;51.796;10.956;2022-08-03T11:21:57;64.88;39.18;78.22;;
67900;Laerm;54700;51.796;10.956;2022-08-03T11:24:55;61.45;36.60;79.35;;
67900;Laerm;54700;51.796;10.956;2022-08-03T11:27:23;59.63;34.20;69.44;;
67900;Laerm;54700;51.796;10.956;2022-08-03T11:29:56;62.37;37.97;76.85;;
67900;Laerm;54700;51.796;10.956;2022-08-03T11:32:52;63.85;48.90;78.41;;
67900;Laerm;54700;51.796;10.956;2022-08-03T11:35:20;61.22;34.54;71.78;;
67900;Laerm;54700;51.796;10.956;2022-08-03T11:38:02;60.86;35.54;72.02;;
67900;Laerm;54700;51.796;10.956;2022-08-03T11:40:33;60.82;42.11;69.80;;
67900;Laerm;54700;51.796;10.956;2022-08-03T11:43:00;61.16;43.70;74.51;;
67900;Laerm;54700;51.796;10.956;2022-08-03T11:45:28;63.36;45.86;78.36;;
67900;Laerm;54700;51.796;10.956;2022-08-03T11:47:56;63.18;39.35;82.16;;
67900;Laerm;54700;51.796;10.956;2022-08-03T11:50:25;65.21;32.28;80.13;;
67900;Laerm;54700;51.796;10.956;2022-08-03T11:52:52;61.80;36.96;75.64;;
67900;Laerm;54700;51.796;10.956;2022-08-03T11:55:20;60.28;39.83;70.32;;
67900;Laerm;54700;51.796;10.956;2022-08-03T11:57:47;63.18;46.31;74.98;;
67900;Laerm;54700;51.796;10.956;2022-08-03T12:00:22;61.21;36.10;74.64;;
67900;Laerm;54700;51.796;10.956;2022-08-03T12:03:00;63.95;39.59;75.58;;
67900;Laerm;54700;51.796;10.956;2022-08-03T12:05:38;60.95;34.70;73.81;;
67900;Laerm;54700;51.796;10.956;2022-08-03T12:08:06;65.15;37.81;84.28;;
67900;Laerm;54700;51.796;10.956;2022-08-03T12:10:34;59.96;34.73;70.84;;
67900;Laerm;54700;51.796;10.956;2022-08-03T12:13:03;62.53;32.83;76.19;;
67900;Laerm;54700;51.796;10.956;2022-08-03T12:15:34;61.44;36.63;69.00;;
67900;Laerm;54700;51.796;10.956;2022-08-03T12:18:12;61.25;40.15;70.92;;
67900;Laerm;54700;51.796;10.956;2022-08-03T12:20:40;61.60;33.67;81.47;;
67900;Laerm;54700;51.796;10.956;2022-08-03T12:23:07;66.06;35.11;79.29;;
67900;Laerm;54700;51.796;10.956;2022-08-03T12:25:36;60.34;44.69;68.09;;
67900;Laerm;54700;51.796;10.956;2022-08-03T12:28:12;61.54;35.96;70.54;;
67900;Laerm;54700;51.796;10.956;2022-08-03T12:30:40;61.80;37.25;71.51;;
67900;Laerm;54700;51.796;10.956;2022-08-03T12:33:15;60.57;36.45;74.25;;
67900;Laerm;54700;51.796;10.956;2022-08-03T12:35:45;61.80;38.47;72.58;;
67900;Laerm;54700;51.796;10.956;2022-08-03T12:38:12;61.60;35.38;69.32;;
67900;Laerm;54700;51.796;10.956;2022-08-03T12:40:39;65.96;37.33;79.88;;
67900;Laerm;54700;51.796;10.956;2022-08-03T12:43:10;62.01;43.36;72.12;;
67900;Laerm;54700;51.796;10.956;2022-08-03T12:45:38;62.22;38.66;70.38;;
67900;Laerm;54700;51.796;10.956;2022-08-03T12:48:07;63.89;47.89;77.41;;
67900;Laerm;54700;51.796;10.956;2022-08-03T12:50:37;63.51;44.46;74.74;;
67900;Laerm;54700;51.796;10.956;2022-08-03T12:53:05;60.77;39.95;69.96;;
67900;Laerm;54700;51.796;10.956;2022-08-03T12:55:33;60.22;36.48;67.78;;
67900;Laerm;54700;51.796;10.956;2022-08-03T12:58:01;62.36;46.09;71.92;;
67900;Laerm;54700;51.796;10.956;2022-08-03T13:00:28;63.86;45.88;73.19;;
67900;Laerm;54700;51.796;10.956;2022-08-03T13:02:58;60.76;38.12;69.14;;
67900;Laerm;54700;51.796;10.956;2022-08-03T13:05:26;60.92;39.77;70.75;;
67900;Laerm;54700;51.796;10.956;2022-08-03T13:07:54;61.30;41.18;69.66;;
67900;Laerm;54700;51.796;10.956;2022-08-03T13:10:29;63.63;45.36;74.14;;
67900;Laerm;54700;51.796;10.956;2022-08-03T13:12:57;62.18;39.10;70.14;;
67900;Laerm;54700;51.796;10.956;2022-08-03T13:15:25;63.82;50.42;71.35;;
67900;Laerm;54700;51.796;10.956;2022-08-03T13:17:54;64.88;39.75;78.26;;
67900;Laerm;54700;51.796;10.956;2022-08-03T13:20:21;62.30;39.97;69.53;;
67900;Laerm;54700;51.796;10.956;2022-08-03T13:22:48;61.12;31.86;81.99;;
67900;Laerm;54700;51.796;10.956;2022-08-03T13:25:16;61.09;35.88;69.54;;
67900;Laerm;54700;51.796;10.956;2022-08-03T13:27:43;63.62;41.98;74.50;;
67900;Laerm;54700;51.796;10.956;2022-08-03T13:30:10;62.69;40.65;71.82;;
67900;Laerm;54700;51.796;10.956;2022-08-03T13:32:37;61.61;40.12;71.28;;
67900;Laerm;54700;51.796;10.956;2022-08-03T13:35:05;62.57;38.00;71.97;;
67900;Laerm;54700;51.796;10.956;2022-08-03T13:37:32;61.10;41.53;72.72;;
67900;Laerm;54700;51.796;10.956;2022-08-03T13:39:59;65.37;45.22;83.85;;
67900;Laerm;54700;51.796;10.956;2022-08-03T13:42:28;64.87;44.35;78.52;;